sensor_id;sensor_type;location;lat;lon;timestamp;P1;durP1;ratioP1;P2;durP2;ratioP2
21036;SDS011;10677;50.942;4.028;2022-11-15T00:01:43;42.97;;;26.33;;
21036;SDS011;10677;50.942;4.028;2022-11-15T00:04:08;40.97;;;26.88;;
21036;SDS011;10677;50.942;4.028;2022-11-15T00:06:35;40.55;;;25.05;;
21036;SDS011;10677;50.942;4.028;2022-11-15T00:09:01;42.13;;;26.08;;
21036;SDS011;10677;50.942;4.028;2022-11-15T00:11:27;42.30;;;25.73;;
21036;SDS011;10677;50.942;4.028;2022-11-15T00:13:56;38.55;;;25.52;;
21036;SDS011;10677;50.942;4.028;2022-11-15T00:16:22;40.63;;;25.63;;
21036;SDS011;10677;50.942;4.028;2022-11-15T00:18:49;38.67;;;24.52;;
21036;SDS011;10677;50.942;4.028;2022-11-15T00:21:15;38.13;;;25.15;;
21036;SDS011;10677;50.942;4.028;2022-11-15T00:23:41;41.25;;;25.50;;
21036;SDS011;10677;50.942;4.028;2022-11-15T00:26:07;38.75;;;24.58;;
21036;SDS011;10677;50.942;4.028;2022-11-15T00:28:35;37.97;;;23.77;;
21036;SDS011;10677;50.942;4.028;2022-11-15T00:31:01;35.47;;;24.00;;
21036;SDS011;10677;50.942;4.028;2022-11-15T00:33:29;39.58;;;22.20;;
21036;SDS011;10677;50.942;4.028;2022-11-15T00:36:02;42.17;;;23.05;;
21036;SDS011;10677;50.942;4.028;2022-11-15T00:38:34;38.15;;;22.52;;
21036;SDS011;10677;50.942;4.028;2022-11-15T00:41:01;33.45;;;22.30;;
21036;SDS011;10677;50.942;4.028;2022-11-15T00:43:28;34.80;;;21.48;;
21036;SDS011;10677;50.942;4.028;2022-11-15T00:45:55;33.58;;;20.75;;
21036;SDS011;10677;50.942;4.028;2022-11-15T00:48:21;33.50;;;21.08;;
21036;SDS011;10677;50.942;4.028;2022-11-15T00:50:47;35.47;;;21.00;;
21036;SDS011;10677;50.942;4.028;2022-11-15T00:53:13;29.75;;;19.77;;
21036;SDS011;10677;50.942;4.028;2022-11-15T00:55:38;32.70;;;20.52;;
21036;SDS011;10677;50.942;4.028;2022-11-15T00:58:04;30.40;;;21.45;;
21036;SDS011;10677;50.942;4.028;2022-11-15T01:00:29;26.20;;;19.38;;
21036;SDS011;10677;50.942;4.028;2022-11-15T01:02:55;28.23;;;18.77;;
21036;SDS011;10677;50.942;4.028;2022-11-15T01:05:21;29.35;;;19.55;;
21036;SDS011;10677;50.942;4.028;2022-11-15T01:07:46;32.90;;;20.35;;
21036;SDS011;10677;50.942;4.028;2022-11-15T01:10:12;27.55;;;19.38;;
21036;SDS011;10677;50.942;4.028;2022-11-15T01:12:37;27.40;;;19.33;;
21036;SDS011;10677;50.942;4.028;2022-11-15T01:15:04;31.73;;;19.08;;
21036;SDS011;10677;50.942;4.028;2022-11-15T01:17:30;30.00;;;18.25;;
21036;SDS011;10677;50.942;4.028;2022-11-15T01:19:56;26.65;;;17.98;;
21036;SDS011;10677;50.942;4.028;2022-11-15T01:22:22;27.38;;;18.45;;
21036;SDS011;10677;50.942;4.028;2022-11-15T01:24:49;27.70;;;17.90;;
21036;SDS011;10677;50.942;4.028;2022-11-15T01:27:15;30.08;;;19.10;;
21036;SDS011;10677;50.942;4.028;2022-11-15T01:29:40;27.55;;;18.73;;
21036;SDS011;10677;50.942;4.028;2022-11-15T01:32:06;32.78;;;18.88;;
21036;SDS011;10677;50.942;4.028;2022-11-15T01:34:31;33.72;;;20.38;;
21036;SDS011;10677;50.942;4.028;2022-11-15T01:36:57;28.15;;;19.15;;
21036;SDS011;10677;50.942;4.028;2022-11-15T01:39:23;30.45;;;18.25;;
21036;SDS011;10677;50.942;4.028;2022-11-15T01:41:48;30.85;;;19.63;;
21036;SDS011;10677;50.942;4.028;2022-11-15T01:46:59;33.53;;;19.35;;
21036;SDS011;10677;50.942;4.028;2022-11-15T01:49:27;35.10;;;20.20;;
21036;SDS011;10677;50.942;4.028;2022-11-15T01:51:57;31.83;;;20.10;;
21036;SDS011;10677;50.942;4.028;2022-11-15T01:54:25;29.83;;;18.17;;
21036;SDS011;10677;50.942;4.028;2022-11-15T01:57:01;33.95;;;19.30;;
21036;SDS011;10677;50.942;4.028;2022-11-15T01:59:34;36.55;;;19.67;;
21036;SDS011;10677;50.942;4.028;2022-11-15T02:02:02;31.95;;;19.02;;
21036;SDS011;10677;50.942;4.028;2022-11-15T02:04:28;27.67;;;19.00;;
21036;SDS011;10677;50.942;4.028;2022-11-15T02:06:56;30.20;;;18.45;;
21036;SDS011;10677;50.942;4.028;2022-11-15T02:09:23;31.27;;;18.33;;
21036;SDS011;10677;50.942;4.028;2022-11-15T02:11:49;31.73;;;18.88;;
21036;SDS011;10677;50.942;4.028;2022-11-15T02:14:17;28.55;;;18.25;;
21036;SDS011;10677;50.942;4.028;2022-11-15T02:39:00;25.70;;;16.70;;
21036;SDS011;10677;50.942;4.028;2022-11-15T02:41:46;33.20;;;17.48;;
21036;SDS011;10677;50.942;4.028;2022-11-15T02:44:24;30.05;;;17.48;;
21036;SDS011;10677;50.942;4.028;2022-11-15T02:46:59;30.75;;;18.10;;
21036;SDS011;10677;50.942;4.028;2022-11-15T02:49:59;27.52;;;17.38;;
21036;SDS011;10677;50.942;4.028;2022-11-15T02:52:28;30.08;;;16.77;;
21036;SDS011;10677;50.942;4.028;2022-11-15T02:54:57;27.95;;;16.05;;
21036;SDS011;10677;50.942;4.028;2022-11-15T02:57:50;27.88;;;16.45;;
21036;SDS011;10677;50.942;4.028;2022-11-15T03:00:17;29.77;;;17.48;;
21036;SDS011;10677;50.942;4.028;2022-11-15T03:08:21;29.10;;;15.77;;
21036;SDS011;10677;50.942;4.028;2022-11-15T03:16:51;27.70;;;16.52;;
21036;SDS011;10677;50.942;4.028;2022-11-15T03:19:28;26.13;;;16.85;;
21036;SDS011;10677;50.942;4.028;2022-11-15T03:21:55;27.75;;;17.13;;
21036;SDS011;10677;50.942;4.028;2022-11-15T03:24:22;33.63;;;16.77;;
21036;SDS011;10677;50.942;4.028;2022-11-15T03:26:50;31.08;;;16.77;;
21036;SDS011;10677;50.942;4.028;2022-11-15T03:29:22;24.65;;;15.50;;
21036;SDS011;10677;50.942;4.028;2022-11-15T03:31:54;27.10;;;15.70;;
21036;SDS011;10677;50.942;4.028;2022-11-15T03:34:38;25.58;;;14.45;;
21036;SDS011;10677;50.942;4.028;2022-11-15T03:40:07;20.90;;;13.95;;
21036;SDS011;10677;50.942;4.028;2022-11-15T03:42:36;24.27;;;14.70;;
21036;SDS011;10677;50.942;4.028;2022-11-15T03:46:06;23.55;;;13.98;;
21036;SDS011;10677;50.942;4.028;2022-11-15T03:48:21;21.50;;;13.63;;
21036;SDS011;10677;50.942;4.028;2022-11-15T03:50:50;21.25;;;11.77;;
21036;SDS011;10677;50.942;4.028;2022-11-15T03:53:16;19.88;;;12.15;;
21036;SDS011;10677;50.942;4.028;2022-11-15T03:55:41;18.20;;;11.23;;
21036;SDS011;10677;50.942;4.028;2022-11-15T03:58:07;16.83;;;11.13;;
21036;SDS011;10677;50.942;4.028;2022-11-15T04:00:33;26.45;;;12.38;;
21036;SDS011;10677;50.942;4.028;2022-11-15T04:02:58;16.42;;;11.50;;
21036;SDS011;10677;50.942;4.028;2022-11-15T04:05:24;24.15;;;10.90;;
21036;SDS011;10677;50.942;4.028;2022-11-15T04:07:50;22.52;;;11.18;;
21036;SDS011;10677;50.942;4.028;2022-11-15T04:10:15;20.33;;;10.90;;
21036;SDS011;10677;50.942;4.028;2022-11-15T04:12:42;18.48;;;10.52;;
21036;SDS011;10677;50.942;4.028;2022-11-15T04:15:12;14.48;;;9.43;;
21036;SDS011;10677;50.942;4.028;2022-11-15T04:17:46;17.02;;;9.40;;
21036;SDS011;10677;50.942;4.028;2022-11-15T04:20:15;15.77;;;9.45;;
21036;SDS011;10677;50.942;4.028;2022-11-15T04:23:02;18.20;;;9.63;;
21036;SDS011;10677;50.942;4.028;2022-11-15T04:25:52;17.58;;;8.95;;
21036;SDS011;10677;50.942;4.028;2022-11-15T04:28:19;17.75;;;9.65;;
21036;SDS011;10677;50.942;4.028;2022-11-15T04:30:45;17.67;;;9.10;;
21036;SDS011;10677;50.942;4.028;2022-11-15T04:33:11;15.40;;;8.45;;
21036;SDS011;10677;50.942;4.028;2022-11-15T04:35:36;19.65;;;9.13;;
21036;SDS011;10677;50.942;4.028;2022-11-15T04:38:03;16.15;;;8.80;;
21036;SDS011;10677;50.942;4.028;2022-11-15T04:40:30;21.52;;;9.55;;
21036;SDS011;10677;50.942;4.028;2022-11-15T04:42:56;15.93;;;8.48;;
21036;SDS011;10677;50.942;4.028;2022-11-15T04:45:22;16.95;;;8.52;;
21036;SDS011;10677;50.942;4.028;2022-11-15T04:47:47;17.88;;;8.82;;
21036;SDS011;10677;50.942;4.028;2022-11-15T04:50:13;18.42;;;8.65;;
21036;SDS011;10677;50.942;4.028;2022-11-15T04:52:40;12.30;;;7.95;;
21036;SDS011;10677;50.942;4.028;2022-11-15T04:55:15;14.52;;;7.68;;
21036;SDS011;10677;50.942;4.028;2022-11-15T04:57:41;14.63;;;8.10;;
21036;SDS011;10677;50.942;4.028;2022-11-15T05:00:08;15.90;;;8.38;;
21036;SDS011;10677;50.942;4.028;2022-11-15T05:02:35;18.65;;;8.13;;
21036;SDS011;10677;50.942;4.028;2022-11-15T05:05:20;21.63;;;7.80;;
21036;SDS011;10677;50.942;4.028;2022-11-15T05:07:45;17.95;;;8.10;;
21036;SDS011;10677;50.942;4.028;2022-11-15T05:10:11;16.45;;;8.20;;
21036;SDS011;10677;50.942;4.028;2022-11-15T05:12:36;16.73;;;6.85;;
21036;SDS011;10677;50.942;4.028;2022-11-15T05:15:02;14.70;;;7.18;;
21036;SDS011;10677;50.942;4.028;2022-11-15T05:17:28;29.60;;;14.55;;
21036;SDS011;10677;50.942;4.028;2022-11-15T05:19:54;13.75;;;7.22;;
21036;SDS011;10677;50.942;4.028;2022-11-15T05:22:21;15.40;;;6.97;;
21036;SDS011;10677;50.942;4.028;2022-11-15T05:24:47;14.93;;;7.45;;
21036;SDS011;10677;50.942;4.028;2022-11-15T05:27:12;14.13;;;7.57;;
21036;SDS011;10677;50.942;4.028;2022-11-15T05:29:38;16.13;;;7.30;;
21036;SDS011;10677;50.942;4.028;2022-11-15T05:32:07;13.32;;;6.47;;
21036;SDS011;10677;50.942;4.028;2022-11-15T05:34:35;13.05;;;6.38;;
21036;SDS011;10677;50.942;4.028;2022-11-15T05:37:00;13.35;;;6.20;;
21036;SDS011;10677;50.942;4.028;2022-11-15T05:39:26;12.77;;;7.05;;
21036;SDS011;10677;50.942;4.028;2022-11-15T05:42:11;12.13;;;5.78;;
21036;SDS011;10677;50.942;4.028;2022-11-15T05:44:38;11.00;;;5.18;;
21036;SDS011;10677;50.942;4.028;2022-11-15T05:47:08;15.63;;;6.18;;
21036;SDS011;10677;50.942;4.028;2022-11-15T05:49:39;13.13;;;5.22;;
21036;SDS011;10677;50.942;4.028;2022-11-15T05:52:07;9.27;;;4.55;;
21036;SDS011;10677;50.942;4.028;2022-11-15T05:54:38;14.43;;;4.75;;
21036;SDS011;10677;50.942;4.028;2022-11-15T05:57:04;11.45;;;4.40;;
21036;SDS011;10677;50.942;4.028;2022-11-15T05:59:30;14.00;;;5.43;;
21036;SDS011;10677;50.942;4.028;2022-11-15T06:01:57;10.07;;;5.28;;
21036;SDS011;10677;50.942;4.028;2022-11-15T06:04:23;9.30;;;4.75;;
21036;SDS011;10677;50.942;4.028;2022-11-15T06:06:49;9.20;;;4.93;;
21036;SDS011;10677;50.942;4.028;2022-11-15T06:09:14;7.25;;;4.95;;
21036;SDS011;10677;50.942;4.028;2022-11-15T06:11:40;9.70;;;4.63;;
21036;SDS011;10677;50.942;4.028;2022-11-15T06:14:06;9.13;;;4.82;;
21036;SDS011;10677;50.942;4.028;2022-11-15T06:16:31;9.40;;;4.90;;
21036;SDS011;10677;50.942;4.028;2022-11-15T06:18:57;10.70;;;5.80;;
21036;SDS011;10677;50.942;4.028;2022-11-15T06:21:22;15.40;;;6.68;;
21036;SDS011;10677;50.942;4.028;2022-11-15T06:23:48;11.82;;;6.13;;
21036;SDS011;10677;50.942;4.028;2022-11-15T06:26:14;14.40;;;6.10;;
21036;SDS011;10677;50.942;4.028;2022-11-15T06:28:39;12.15;;;6.80;;
21036;SDS011;10677;50.942;4.028;2022-11-15T06:31:06;10.05;;;5.93;;
21036;SDS011;10677;50.942;4.028;2022-11-15T06:33:33;12.85;;;6.25;;
21036;SDS011;10677;50.942;4.028;2022-11-15T06:36:00;11.65;;;6.28;;
21036;SDS011;10677;50.942;4.028;2022-11-15T06:38:26;8.45;;;5.32;;
21036;SDS011;10677;50.942;4.028;2022-11-15T06:40:53;11.48;;;5.18;;
21036;SDS011;10677;50.942;4.028;2022-11-15T06:43:18;9.63;;;5.22;;
21036;SDS011;10677;50.942;4.028;2022-11-15T06:45:44;12.85;;;6.40;;
21036;SDS011;10677;50.942;4.028;2022-11-15T06:48:09;11.77;;;5.90;;
21036;SDS011;10677;50.942;4.028;2022-11-15T06:50:35;12.60;;;5.63;;
21036;SDS011;10677;50.942;4.028;2022-11-15T06:53:01;11.82;;;6.07;;
21036;SDS011;10677;50.942;4.028;2022-11-15T06:55:28;14.63;;;5.93;;
21036;SDS011;10677;50.942;4.028;2022-11-15T06:57:54;11.95;;;5.63;;
21036;SDS011;10677;50.942;4.028;2022-11-15T07:00:20;12.85;;;6.07;;
21036;SDS011;10677;50.942;4.028;2022-11-15T07:02:47;18.73;;;7.40;;
21036;SDS011;10677;50.942;4.028;2022-11-15T07:05:13;14.50;;;7.22;;
21036;SDS011;10677;50.942;4.028;2022-11-15T07:07:40;15.05;;;7.15;;
21036;SDS011;10677;50.942;4.028;2022-11-15T07:10:06;13.75;;;6.13;;
21036;SDS011;10677;50.942;4.028;2022-11-15T07:12:32;14.20;;;7.95;;
21036;SDS011;10677;50.942;4.028;2022-11-15T07:14:58;16.13;;;9.20;;
21036;SDS011;10677;50.942;4.028;2022-11-15T07:17:24;20.17;;;11.10;;
21036;SDS011;10677;50.942;4.028;2022-11-15T07:19:49;14.13;;;8.10;;
21036;SDS011;10677;50.942;4.028;2022-11-15T07:22:15;19.63;;;10.65;;
21036;SDS011;10677;50.942;4.028;2022-11-15T07:24:41;11.50;;;6.45;;
21036;SDS011;10677;50.942;4.028;2022-11-15T07:27:06;14.70;;;7.70;;
21036;SDS011;10677;50.942;4.028;2022-11-15T07:29:32;15.13;;;7.70;;
21036;SDS011;10677;50.942;4.028;2022-11-15T07:31:57;15.05;;;8.27;;
21036;SDS011;10677;50.942;4.028;2022-11-15T07:34:24;16.48;;;8.60;;
21036;SDS011;10677;50.942;4.028;2022-11-15T07:36:50;16.80;;;7.95;;
21036;SDS011;10677;50.942;4.028;2022-11-15T07:39:17;18.05;;;8.20;;
21036;SDS011;10677;50.942;4.028;2022-11-15T07:41:43;15.63;;;8.77;;
21036;SDS011;10677;50.942;4.028;2022-11-15T07:44:10;18.48;;;7.53;;
21036;SDS011;10677;50.942;4.028;2022-11-15T07:46:37;10.35;;;6.60;;
21036;SDS011;10677;50.942;4.028;2022-11-15T07:49:03;11.50;;;6.00;;
21036;SDS011;10677;50.942;4.028;2022-11-15T07:51:29;12.88;;;5.97;;
21036;SDS011;10677;50.942;4.028;2022-11-15T07:53:55;14.73;;;6.00;;
21036;SDS011;10677;50.942;4.028;2022-11-15T07:56:21;26.08;;;15.23;;
21036;SDS011;10677;50.942;4.028;2022-11-15T07:58:47;14.77;;;5.18;;
21036;SDS011;10677;50.942;4.028;2022-11-15T08:01:12;10.80;;;4.93;;
21036;SDS011;10677;50.942;4.028;2022-11-15T08:03:38;14.02;;;5.15;;
21036;SDS011;10677;50.942;4.028;2022-11-15T08:06:04;22.05;;;5.43;;
21036;SDS011;10677;50.942;4.028;2022-11-15T08:08:30;14.75;;;5.90;;
21036;SDS011;10677;50.942;4.028;2022-11-15T08:10:59;12.75;;;4.18;;
21036;SDS011;10677;50.942;4.028;2022-11-15T08:13:25;12.93;;;5.32;;
21036;SDS011;10677;50.942;4.028;2022-11-15T08:15:51;13.45;;;3.88;;
21036;SDS011;10677;50.942;4.028;2022-11-15T08:18:17;8.20;;;3.33;;
21036;SDS011;10677;50.942;4.028;2022-11-15T08:20:42;9.15;;;3.88;;
21036;SDS011;10677;50.942;4.028;2022-11-15T08:23:09;7.10;;;3.20;;
21036;SDS011;10677;50.942;4.028;2022-11-15T08:25:36;8.07;;;2.88;;
21036;SDS011;10677;50.942;4.028;2022-11-15T08:28:04;7.72;;;2.70;;
21036;SDS011;10677;50.942;4.028;2022-11-15T08:30:34;6.20;;;2.72;;
21036;SDS011;10677;50.942;4.028;2022-11-15T08:33:03;7.63;;;2.58;;
21036;SDS011;10677;50.942;4.028;2022-11-15T08:35:29;6.45;;;2.50;;
21036;SDS011;10677;50.942;4.028;2022-11-15T08:37:57;7.60;;;2.30;;
21036;SDS011;10677;50.942;4.028;2022-11-15T08:40:23;5.68;;;2.53;;
21036;SDS011;10677;50.942;4.028;2022-11-15T08:42:52;7.07;;;2.40;;
21036;SDS011;10677;50.942;4.028;2022-11-15T08:45:21;9.52;;;3.03;;
21036;SDS011;10677;50.942;4.028;2022-11-15T08:47:47;7.20;;;2.65;;
21036;SDS011;10677;50.942;4.028;2022-11-15T08:50:13;13.75;;;2.55;;
21036;SDS011;10677;50.942;4.028;2022-11-15T08:52:39;7.70;;;2.47;;
21036;SDS011;10677;50.942;4.028;2022-11-15T08:55:05;7.75;;;2.72;;
21036;SDS011;10677;50.942;4.028;2022-11-15T08:57:31;11.27;;;2.17;;
21036;SDS011;10677;50.942;4.028;2022-11-15T09:00:02;6.82;;;2.10;;
21036;SDS011;10677;50.942;4.028;2022-11-15T09:02:29;6.10;;;1.80;;
21036;SDS011;10677;50.942;4.028;2022-11-15T09:04:54;12.35;;;2.65;;
21036;SDS011;10677;50.942;4.028;2022-11-15T09:07:20;13.00;;;2.25;;
21036;SDS011;10677;50.942;4.028;2022-11-15T09:09:46;8.45;;;1.98;;
21036;SDS011;10677;50.942;4.028;2022-11-15T09:12:11;6.15;;;1.70;;
21036;SDS011;10677;50.942;4.028;2022-11-15T09:14:37;9.02;;;2.03;;
21036;SDS011;10677;50.942;4.028;2022-11-15T09:17:03;5.15;;;1.65;;
21036;SDS011;10677;50.942;4.028;2022-11-15T09:19:28;4.70;;;1.60;;
21036;SDS011;10677;50.942;4.028;2022-11-15T09:21:54;8.52;;;1.70;;
21036;SDS011;10677;50.942;4.028;2022-11-15T09:24:20;7.80;;;2.08;;
21036;SDS011;10677;50.942;4.028;2022-11-15T09:26:46;5.25;;;2.10;;
21036;SDS011;10677;50.942;4.028;2022-11-15T09:29:11;5.95;;;1.50;;
21036;SDS011;10677;50.942;4.028;2022-11-15T09:31:37;6.00;;;1.67;;
21036;SDS011;10677;50.942;4.028;2022-11-15T09:34:03;11.23;;;2.22;;
21036;SDS011;10677;50.942;4.028;2022-11-15T09:36:29;10.15;;;1.70;;
21036;SDS011;10677;50.942;4.028;2022-11-15T09:38:57;8.38;;;1.73;;
21036;SDS011;10677;50.942;4.028;2022-11-15T09:50:32;9.32;;;1.98;;
21036;SDS011;10677;50.942;4.028;2022-11-15T09:53:33;6.55;;;1.10;;
21036;SDS011;10677;50.942;4.028;2022-11-15T09:56:14;11.18;;;1.70;;
21036;SDS011;10677;50.942;4.028;2022-11-15T10:01:54;10.95;;;1.45;;
21036;SDS011;10677;50.942;4.028;2022-11-15T10:04:33;10.00;;;2.95;;
21036;SDS011;10677;50.942;4.028;2022-11-15T10:07:02;7.68;;;1.55;;
21036;SDS011;10677;50.942;4.028;2022-11-15T10:12:12;7.50;;;1.83;;
21036;SDS011;10677;50.942;4.028;2022-11-15T10:14:39;8.48;;;1.80;;
21036;SDS011;10677;50.942;4.028;2022-11-15T10:20:12;9.05;;;1.65;;
21036;SDS011;10677;50.942;4.028;2022-11-15T10:22:51;15.93;;;1.77;;
21036;SDS011;10677;50.942;4.028;2022-11-15T10:25:40;8.60;;;1.90;;
21036;SDS011;10677;50.942;4.028;2022-11-15T10:28:11;5.15;;;1.27;;
21036;SDS011;10677;50.942;4.028;2022-11-15T10:30:46;8.70;;;1.73;;
21036;SDS011;10677;50.942;4.028;2022-11-15T10:41:14;8.48;;;1.38;;
21036;SDS011;10677;50.942;4.028;2022-11-15T10:46:32;6.13;;;1.75;;
21036;SDS011;10677;50.942;4.028;2022-11-15T10:49:13;7.57;;;1.42;;
21036;SDS011;10677;50.942;4.028;2022-11-15T10:51:46;11.38;;;1.60;;
21036;SDS011;10677;50.942;4.028;2022-11-15T10:54:24;10.43;;;2.05;;
21036;SDS011;10677;50.942;4.028;2022-11-15T10:56:55;7.93;;;1.58;;
21036;SDS011;10677;50.942;4.028;2022-11-15T10:59:28;10.63;;;1.92;;
21036;SDS011;10677;50.942;4.028;2022-11-15T11:01:56;3.25;;;1.10;;
21036;SDS011;10677;50.942;4.028;2022-11-15T11:04:25;10.10;;;1.88;;
21036;SDS011;10677;50.942;4.028;2022-11-15T11:06:52;4.80;;;0.98;;
21036;SDS011;10677;50.942;4.028;2022-11-15T11:09:35;8.90;;;1.10;;
21036;SDS011;10677;50.942;4.028;2022-11-15T11:12:03;7.70;;;1.60;;
21036;SDS011;10677;50.942;4.028;2022-11-15T11:14:31;6.50;;;1.30;;
21036;SDS011;10677;50.942;4.028;2022-11-15T11:17:02;9.02;;;1.55;;
21036;SDS011;10677;50.942;4.028;2022-11-15T11:19:42;6.68;;;1.30;;
21036;SDS011;10677;50.942;4.028;2022-11-15T11:45:14;6.93;;;1.33;;
21036;SDS011;10677;50.942;4.028;2022-11-15T11:47:51;4.88;;;1.27;;
21036;SDS011;10677;50.942;4.028;2022-11-15T11:50:37;9.15;;;1.35;;
21036;SDS011;10677;50.942;4.028;2022-11-15T11:56:10;7.95;;;1.40;;
21036;SDS011;10677;50.942;4.028;2022-11-15T11:58:54;10.48;;;1.55;;
21036;SDS011;10677;50.942;4.028;2022-11-15T12:01:29;5.60;;;1.20;;
21036;SDS011;10677;50.942;4.028;2022-11-15T12:04:04;4.65;;;1.20;;
21036;SDS011;10677;50.942;4.028;2022-11-15T12:10:25;5.53;;;1.20;;
21036;SDS011;10677;50.942;4.028;2022-11-15T12:12:56;9.43;;;1.38;;
21036;SDS011;10677;50.942;4.028;2022-11-15T12:18:30;4.68;;;1.33;;
21036;SDS011;10677;50.942;4.028;2022-11-15T12:20:57;6.70;;;1.20;;
21036;SDS011;10677;50.942;4.028;2022-11-15T12:24:28;6.82;;;1.10;;
21036;SDS011;10677;50.942;4.028;2022-11-15T12:26:41;7.15;;;1.08;;
21036;SDS011;10677;50.942;4.028;2022-11-15T12:29:26;7.95;;;1.20;;
21036;SDS011;10677;50.942;4.028;2022-11-15T12:32:06;8.05;;;1.60;;
21036;SDS011;10677;50.942;4.028;2022-11-15T12:34:48;5.30;;;1.25;;
21036;SDS011;10677;50.942;4.028;2022-11-15T13:48:02;5.80;;;1.70;;
21036;SDS011;10677;50.942;4.028;2022-11-15T13:58:10;4.63;;;1.15;;
21036;SDS011;10677;50.942;4.028;2022-11-15T14:23:44;5.75;;;1.98;;
21036;SDS011;10677;50.942;4.028;2022-11-15T14:30:51;7.55;;;1.77;;
21036;SDS011;10677;50.942;4.028;2022-11-15T14:34:32;7.00;;;1.58;;
21036;SDS011;10677;50.942;4.028;2022-11-15T14:59:50;4.95;;;2.10;;
21036;SDS011;10677;50.942;4.028;2022-11-15T15:02:53;12.80;;;7.28;;
21036;SDS011;10677;50.942;4.028;2022-11-15T15:05:50;6.20;;;3.20;;
21036;SDS011;10677;50.942;4.028;2022-11-15T15:08:21;5.72;;;2.35;;
21036;SDS011;10677;50.942;4.028;2022-11-15T15:17:44;5.63;;;2.40;;
21036;SDS011;10677;50.942;4.028;2022-11-15T15:20:18;8.63;;;2.88;;
21036;SDS011;10677;50.942;4.028;2022-11-15T15:22:44;8.63;;;3.13;;
21036;SDS011;10677;50.942;4.028;2022-11-15T15:25:23;10.98;;;4.47;;
21036;SDS011;10677;50.942;4.028;2022-11-15T15:27:55;8.55;;;3.60;;
21036;SDS011;10677;50.942;4.028;2022-11-15T15:30:24;7.95;;;3.63;;
21036;SDS011;10677;50.942;4.028;2022-11-15T15:32:51;7.72;;;3.40;;
21036;SDS011;10677;50.942;4.028;2022-11-15T15:35:17;4.78;;;3.15;;
21036;SDS011;10677;50.942;4.028;2022-11-15T15:37:44;9.43;;;3.28;;
21036;SDS011;10677;50.942;4.028;2022-11-15T15:40:22;5.70;;;3.13;;
21036;SDS011;10677;50.942;4.028;2022-11-15T15:42:49;6.32;;;3.05;;
21036;SDS011;10677;50.942;4.028;2022-11-15T15:45:15;8.73;;;3.08;;
21036;SDS011;10677;50.942;4.028;2022-11-15T15:47:41;9.43;;;3.95;;
21036;SDS011;10677;50.942;4.028;2022-11-15T15:50:14;8.13;;;3.90;;
21036;SDS011;10677;50.942;4.028;2022-11-15T15:52:47;7.88;;;3.95;;
21036;SDS011;10677;50.942;4.028;2022-11-15T15:55:13;6.78;;;3.50;;
21036;SDS011;10677;50.942;4.028;2022-11-15T15:57:39;19.92;;;7.57;;
21036;SDS011;10677;50.942;4.028;2022-11-15T16:00:04;33.58;;;19.98;;
21036;SDS011;10677;50.942;4.028;2022-11-15T16:02:30;16.13;;;10.30;;
21036;SDS011;10677;50.942;4.028;2022-11-15T16:04:56;8.93;;;4.45;;
21036;SDS011;10677;50.942;4.028;2022-11-15T16:07:22;8.80;;;6.50;;
21036;SDS011;10677;50.942;4.028;2022-11-15T16:09:50;5.50;;;3.10;;
21036;SDS011;10677;50.942;4.028;2022-11-15T16:12:32;6.78;;;4.32;;
21036;SDS011;10677;50.942;4.028;2022-11-15T16:14:59;6.47;;;4.22;;
21036;SDS011;10677;50.942;4.028;2022-11-15T16:17:26;5.45;;;3.38;;
21036;SDS011;10677;50.942;4.028;2022-11-15T16:19:55;9.45;;;4.18;;
21036;SDS011;10677;50.942;4.028;2022-11-15T16:22:21;8.88;;;4.47;;
21036;SDS011;10677;50.942;4.028;2022-11-15T16:24:46;7.65;;;4.20;;
21036;SDS011;10677;50.942;4.028;2022-11-15T16:27:14;5.88;;;4.32;;
21036;SDS011;10677;50.942;4.028;2022-11-15T16:29:40;6.53;;;3.50;;
21036;SDS011;10677;50.942;4.028;2022-11-15T16:32:06;6.80;;;4.05;;
21036;SDS011;10677;50.942;4.028;2022-11-15T16:34:32;6.50;;;4.13;;
21036;SDS011;10677;50.942;4.028;2022-11-15T16:36:57;9.27;;;5.13;;
21036;SDS011;10677;50.942;4.028;2022-11-15T16:39:23;8.95;;;4.40;;
21036;SDS011;10677;50.942;4.028;2022-11-15T16:41:49;8.20;;;3.83;;
21036;SDS011;10677;50.942;4.028;2022-11-15T16:44:14;7.00;;;4.07;;
21036;SDS011;10677;50.942;4.028;2022-11-15T16:46:40;6.20;;;3.78;;
21036;SDS011;10677;50.942;4.028;2022-11-15T16:49:13;8.13;;;3.80;;
21036;SDS011;10677;50.942;4.028;2022-11-15T16:51:39;6.03;;;3.58;;
21036;SDS011;10677;50.942;4.028;2022-11-15T16:54:06;7.05;;;3.55;;
21036;SDS011;10677;50.942;4.028;2022-11-15T16:56:32;7.22;;;3.50;;
21036;SDS011;10677;50.942;4.028;2022-11-15T16:58:58;5.28;;;3.47;;
21036;SDS011;10677;50.942;4.028;2022-11-15T17:01:25;8.00;;;3.72;;
21036;SDS011;10677;50.942;4.028;2022-11-15T17:03:53;6.43;;;3.33;;
21036;SDS011;10677;50.942;4.028;2022-11-15T17:06:19;7.85;;;3.58;;
21036;SDS011;10677;50.942;4.028;2022-11-15T17:08:45;8.52;;;4.00;;
21036;SDS011;10677;50.942;4.028;2022-11-15T17:11:16;7.72;;;3.88;;
21036;SDS011;10677;50.942;4.028;2022-11-15T17:13:45;9.27;;;4.28;;
21036;SDS011;10677;50.942;4.028;2022-11-15T17:16:14;7.15;;;3.80;;
21036;SDS011;10677;50.942;4.028;2022-11-15T17:18:42;4.93;;;3.30;;
21036;SDS011;10677;50.942;4.028;2022-11-15T17:21:15;7.88;;;4.15;;
21036;SDS011;10677;50.942;4.028;2022-11-15T17:23:42;7.63;;;4.38;;
21036;SDS011;10677;50.942;4.028;2022-11-15T17:26:08;9.05;;;5.93;;
21036;SDS011;10677;50.942;4.028;2022-11-15T17:28:37;9.68;;;4.95;;
21036;SDS011;10677;50.942;4.028;2022-11-15T17:31:07;7.53;;;4.63;;
21036;SDS011;10677;50.942;4.028;2022-11-15T17:33:35;7.47;;;4.07;;
21036;SDS011;10677;50.942;4.028;2022-11-15T17:36:03;7.10;;;4.78;;
21036;SDS011;10677;50.942;4.028;2022-11-15T17:38:31;10.20;;;4.95;;
21036;SDS011;10677;50.942;4.028;2022-11-15T17:41:04;5.63;;;4.28;;
21036;SDS011;10677;50.942;4.028;2022-11-15T17:43:33;9.07;;;5.18;;
21036;SDS011;10677;50.942;4.028;2022-11-15T17:45:59;10.10;;;5.82;;
21036;SDS011;10677;50.942;4.028;2022-11-15T17:48:29;9.10;;;6.13;;
21036;SDS011;10677;50.942;4.028;2022-11-15T17:50:55;12.45;;;7.30;;
21036;SDS011;10677;50.942;4.028;2022-11-15T17:53:23;16.60;;;11.13;;
21036;SDS011;10677;50.942;4.028;2022-11-15T17:55:49;11.57;;;8.20;;
21036;SDS011;10677;50.942;4.028;2022-11-15T17:58:15;10.95;;;8.80;;
21036;SDS011;10677;50.942;4.028;2022-11-15T18:00:45;15.50;;;12.38;;
21036;SDS011;10677;50.942;4.028;2022-11-15T18:03:11;9.30;;;6.15;;
21036;SDS011;10677;50.942;4.028;2022-11-15T18:05:37;10.73;;;7.68;;
21036;SDS011;10677;50.942;4.028;2022-11-15T18:08:05;11.60;;;7.90;;
21036;SDS011;10677;50.942;4.028;2022-11-15T18:10:30;11.77;;;7.78;;
21036;SDS011;10677;50.942;4.028;2022-11-15T18:12:56;12.48;;;8.15;;
21036;SDS011;10677;50.942;4.028;2022-11-15T18:15:21;23.90;;;17.10;;
21036;SDS011;10677;50.942;4.028;2022-11-15T18:17:47;20.40;;;12.63;;
21036;SDS011;10677;50.942;4.028;2022-11-15T18:20:13;12.23;;;8.13;;
21036;SDS011;10677;50.942;4.028;2022-11-15T18:22:38;10.13;;;7.68;;
21036;SDS011;10677;50.942;4.028;2022-11-15T18:25:04;10.00;;;6.05;;
21036;SDS011;10677;50.942;4.028;2022-11-15T18:27:30;7.88;;;5.78;;
21036;SDS011;10677;50.942;4.028;2022-11-15T18:29:56;9.75;;;6.32;;
21036;SDS011;10677;50.942;4.028;2022-11-15T18:32:21;8.63;;;5.38;;
21036;SDS011;10677;50.942;4.028;2022-11-15T18:34:47;11.35;;;9.45;;
21036;SDS011;10677;50.942;4.028;2022-11-15T18:37:12;7.68;;;6.43;;
21036;SDS011;10677;50.942;4.028;2022-11-15T18:39:38;8.40;;;6.50;;
21036;SDS011;10677;50.942;4.028;2022-11-15T18:42:04;12.20;;;9.52;;
21036;SDS011;10677;50.942;4.028;2022-11-15T18:44:29;7.97;;;5.75;;